ROA052 SVMI-SVMG
Flight info
| Callsign | ROA052 |
|---|---|
| Flight time | 0h 37m |
| Altitude | 23000 |
| Route | OSMAR2 OSMAR W19 DOSRA UW19 CHALO EKONU |
| Aircraft | B737/M-SDE2E3FGHIRWXY/LB1 |
Departure
| Time | 2026-04-23 05:11 |
|---|---|
| Airport | Maiquetía Simón Bolívar International Airport (SVMI) |
Arrival
| Time | 2026-04-23 05:49 |
|---|---|
| Airport | Del Caribe Santiago Mariño International Airport (SVMG) |
| Time | Latitude | Longitude | Altitude | Speed | Heading |
|---|---|---|---|---|---|
| 2026-04-23 04:54 | 10.59830 | -67.00186 | 204 ft | 0 kts | 178° |
| 2026-04-23 05:00 | 10.59839 | -67.00186 | 196 ft | 4 kts | 175° |
| 2026-04-23 05:01 | 10.59864 | -67.00190 | 197 ft | 4 kts | 163° |
| 2026-04-23 05:01 | 10.59874 | -67.00193 | 198 ft | 0 kts | 161° |
| 2026-04-23 05:05 | 10.59873 | -67.00192 | 198 ft | 0 kts | 147° |
| 2026-04-23 05:05 | 10.59873 | -67.00189 | 201 ft | 1 kts | 106° |
| 2026-04-23 05:05 | 10.59881 | -67.00186 | 198 ft | 2 kts | 14° |
| 2026-04-23 05:06 | 10.59903 | -67.00165 | 196 ft | 7 kts | 62° |
| 2026-04-23 05:06 | 10.59909 | -67.00103 | 195 ft | 12 kts | 87° |
| 2026-04-23 05:06 | 10.59910 | -67.00073 | 194 ft | 14 kts | 87° |
| 2026-04-23 05:07 | 10.59911 | -67.00063 | 196 ft | 14 kts | 87° |
| 2026-04-23 05:07 | 10.59914 | -66.99968 | 194 ft | 11 kts | 89° |
| 2026-04-23 05:07 | 10.59959 | -66.99911 | 193 ft | 11 kts | 359° |
| 2026-04-23 05:07 | 10.60056 | -66.99916 | 192 ft | 16 kts | 357° |
| 2026-04-23 05:08 | 10.60135 | -66.99858 | 190 ft | 14 kts | 86° |
| 2026-04-23 05:08 | 10.60138 | -66.99759 | 189 ft | 5 kts | 88° |
| 2026-04-23 05:08 | 10.60139 | -66.99732 | 184 ft | 6 kts | 88° |
| 2026-04-23 05:08 | 10.60126 | -66.99678 | 184 ft | 9 kts | 129° |
| 2026-04-23 05:09 | 10.60070 | -66.99665 | 197 ft | 9 kts | 179° |
| 2026-04-23 05:09 | 10.60011 | -66.99664 | 191 ft | 8 kts | 179° |
| 2026-04-23 05:09 | 10.59968 | -66.99663 | 195 ft | 6 kts | 177° |
| 2026-04-23 05:09 | 10.59924 | -66.99659 | 196 ft | 7 kts | 164° |
| 2026-04-23 05:10 | 10.59907 | -66.99622 | 189 ft | 4 kts | 78° |
| 2026-04-23 05:10 | 10.59909 | -66.99614 | 189 ft | 1 kts | 74° |
| 2026-04-23 05:10 | 10.59966 | -66.99382 | 185 ft | 75 kts | 76° |
| 2026-04-23 05:10 | 10.60153 | -66.98623 | 152 ft | 143 kts | 76° |
| 2026-04-23 05:11 | 10.60412 | -66.97533 | 568 ft | 162 kts | 76° |
| 2026-04-23 05:11 | 10.60686 | -66.96428 | 1380 ft | 161 kts | 77° |
| 2026-04-23 05:11 | 10.60981 | -66.95353 | 2173 ft | 161 kts | 74° |
| 2026-04-23 05:11 | 10.61346 | -66.94180 | 2626 ft | 190 kts | 73° |
| 2026-04-23 05:12 | 10.61781 | -66.92796 | 2921 ft | 221 kts | 73° |
| 2026-04-23 05:12 | 10.62270 | -66.91241 | 3375 ft | 238 kts | 73° |
| 2026-04-23 05:12 | 10.62778 | -66.89613 | 3840 ft | 254 kts | 73° |
| 2026-04-23 05:12 | 10.63321 | -66.87862 | 3961 ft | 260 kts | 73° |
| 2026-04-23 05:13 | 10.63873 | -66.86075 | 4328 ft | 270 kts | 73° |
| 2026-04-23 05:13 | 10.64435 | -66.84251 | 5346 ft | 272 kts | 73° |
| 2026-04-23 05:13 | 10.65008 | -66.82387 | 6190 ft | 281 kts | 73° |
| 2026-04-23 05:14 | 10.66191 | -66.78532 | 7997 ft | 289 kts | 73° |
| 2026-04-23 05:14 | 10.66793 | -66.76566 | 8901 ft | 293 kts | 73° |
| 2026-04-23 05:14 | 10.67404 | -66.74572 | 9790 ft | 298 kts | 73° |
| 2026-04-23 05:14 | 10.68027 | -66.72537 | 10487 ft | 309 kts | 73° |
| 2026-04-23 05:15 | 10.68690 | -66.70366 | 10791 ft | 332 kts | 73° |
| 2026-04-23 05:15 | 10.69388 | -66.68086 | 11440 ft | 341 kts | 73° |
| 2026-04-23 05:15 | 10.70097 | -66.65771 | 12255 ft | 345 kts | 73° |
| 2026-04-23 05:15 | 10.70815 | -66.63430 | 13076 ft | 349 kts | 73° |
| 2026-04-23 05:16 | 10.71541 | -66.61061 | 13859 ft | 354 kts | 73° |
| 2026-04-23 05:16 | 10.72278 | -66.58649 | 14596 ft | 357 kts | 73° |
| 2026-04-23 05:16 | 10.73011 | -66.56238 | 15409 ft | 358 kts | 73° |
| 2026-04-23 05:16 | 10.73738 | -66.53803 | 16220 ft | 360 kts | 74° |
| 2026-04-23 05:17 | 10.74441 | -66.51341 | 16932 ft | 365 kts | 74° |
| 2026-04-23 05:17 | 10.75148 | -66.48844 | 17678 ft | 368 kts | 74° |
| 2026-04-23 05:17 | 10.75858 | -66.46342 | 18445 ft | 369 kts | 73° |
| 2026-04-23 05:17 | 10.76577 | -66.43829 | 19072 ft | 372 kts | 73° |
| 2026-04-23 05:18 | 10.77299 | -66.41319 | 19611 ft | 378 kts | 74° |
| 2026-04-23 05:18 | 10.78040 | -66.38743 | 20268 ft | 378 kts | 74° |
| 2026-04-23 05:18 | 10.78773 | -66.36188 | 21093 ft | 375 kts | 74° |
| 2026-04-23 05:18 | 10.79503 | -66.33637 | 21816 ft | 376 kts | 75° |
| 2026-04-23 05:19 | 10.80220 | -66.31082 | 22531 ft | 376 kts | 75° |
| 2026-04-23 05:19 | 10.80933 | -66.28513 | 22909 ft | 377 kts | 76° |
| 2026-04-23 05:19 | 10.81641 | -66.25960 | 22969 ft | 375 kts | 75° |
| 2026-04-23 05:19 | 10.82352 | -66.23404 | 22971 ft | 377 kts | 75° |
| 2026-04-23 05:20 | 10.83068 | -66.20836 | 22982 ft | 377 kts | 75° |
| 2026-04-23 05:20 | 10.83785 | -66.18269 | 22983 ft | 378 kts | 75° |
| 2026-04-23 05:20 | 10.84505 | -66.15695 | 22980 ft | 378 kts | 75° |
| 2026-04-23 05:20 | 10.85227 | -66.13116 | 22983 ft | 378 kts | 76° |
| 2026-04-23 05:21 | 10.85948 | -66.10542 | 22981 ft | 379 kts | 75° |
| 2026-04-23 05:21 | 10.86660 | -66.07998 | 22976 ft | 378 kts | 75° |
| 2026-04-23 05:21 | 10.87381 | -66.05426 | 22976 ft | 378 kts | 75° |
| 2026-04-23 05:21 | 10.88102 | -66.02850 | 22972 ft | 378 kts | 75° |
| 2026-04-23 05:22 | 10.88817 | -66.00282 | 22971 ft | 377 kts | 75° |
| 2026-04-23 05:22 | 10.89511 | -65.97710 | 22971 ft | 377 kts | 78° |
| 2026-04-23 05:22 | 10.89876 | -65.95077 | 22971 ft | 375 kts | 89° |
| 2026-04-23 05:22 | 10.89926 | -65.92425 | 22977 ft | 375 kts | 91° |
| 2026-04-23 05:23 | 10.89923 | -65.89774 | 22966 ft | 375 kts | 91° |
| 2026-04-23 05:23 | 10.89909 | -65.87119 | 22968 ft | 375 kts | 92° |
| 2026-04-23 05:23 | 10.89898 | -65.84464 | 22968 ft | 375 kts | 91° |
| 2026-04-23 05:23 | 10.89896 | -65.81813 | 22968 ft | 375 kts | 91° |
| 2026-04-23 05:24 | 10.89901 | -65.79159 | 22970 ft | 375 kts | 91° |
| 2026-04-23 05:24 | 10.89912 | -65.76504 | 22970 ft | 375 kts | 91° |
| 2026-04-23 05:24 | 10.89925 | -65.73846 | 22967 ft | 375 kts | 91° |
| 2026-04-23 05:24 | 10.89941 | -65.71191 | 22968 ft | 376 kts | 91° |
| 2026-04-23 05:25 | 10.89958 | -65.68535 | 22971 ft | 376 kts | 91° |
| 2026-04-23 05:25 | 10.89975 | -65.65874 | 22970 ft | 376 kts | 91° |
| 2026-04-23 05:25 | 10.89992 | -65.63218 | 22967 ft | 376 kts | 91° |
| 2026-04-23 05:25 | 10.90009 | -65.60556 | 22968 ft | 376 kts | 91° |
| 2026-04-23 05:26 | 10.90026 | -65.57894 | 22968 ft | 376 kts | 91° |
| 2026-04-23 05:26 | 10.90042 | -65.55233 | 22965 ft | 376 kts | 91° |
| 2026-04-23 05:26 | 10.90058 | -65.52572 | 22965 ft | 376 kts | 91° |
| 2026-04-23 05:26 | 10.90074 | -65.49905 | 22971 ft | 376 kts | 91° |
| 2026-04-23 05:27 | 10.90090 | -65.47244 | 22965 ft | 376 kts | 91° |
| 2026-04-23 05:27 | 10.90106 | -65.44580 | 22965 ft | 376 kts | 91° |
| 2026-04-23 05:27 | 10.90123 | -65.41919 | 22966 ft | 376 kts | 91° |
| 2026-04-23 05:27 | 10.90138 | -65.39258 | 22963 ft | 376 kts | 91° |
| 2026-04-23 05:28 | 10.90153 | -65.36594 | 22959 ft | 376 kts | 91° |
| 2026-04-23 05:28 | 10.90167 | -65.33933 | 22961 ft | 376 kts | 91° |
| 2026-04-23 05:28 | 10.90182 | -65.31281 | 22883 ft | 373 kts | 90° |
| 2026-04-23 05:28 | 10.90195 | -65.28678 | 22566 ft | 371 kts | 91° |
| 2026-04-23 05:29 | 10.90208 | -65.26050 | 22133 ft | 370 kts | 91° |
| 2026-04-23 05:29 | 10.90222 | -65.23449 | 21721 ft | 366 kts | 90° |
| 2026-04-23 05:29 | 10.90235 | -65.20872 | 21284 ft | 363 kts | 90° |
| 2026-04-23 05:29 | 10.90249 | -65.18317 | 20852 ft | 360 kts | 90° |
| 2026-04-23 05:30 | 10.90262 | -65.15779 | 20421 ft | 357 kts | 90° |
| 2026-04-23 05:30 | 10.90274 | -65.13263 | 19995 ft | 354 kts | 90° |
| 2026-04-23 05:30 | 10.90286 | -65.10766 | 19556 ft | 352 kts | 90° |
| 2026-04-23 05:30 | 10.90298 | -65.08280 | 19118 ft | 351 kts | 89° |
| 2026-04-23 05:31 | 10.90309 | -65.05805 | 18688 ft | 349 kts | 89° |
| 2026-04-23 05:31 | 10.90319 | -65.03340 | 18240 ft | 348 kts | 90° |
| 2026-04-23 05:31 | 10.90330 | -65.00882 | 17757 ft | 346 kts | 89° |
| 2026-04-23 05:31 | 10.90342 | -64.98443 | 17307 ft | 343 kts | 89° |
| 2026-04-23 05:32 | 10.90353 | -64.96023 | 16857 ft | 341 kts | 89° |
| 2026-04-23 05:32 | 10.90364 | -64.93622 | 16427 ft | 338 kts | 90° |
| 2026-04-23 05:32 | 10.90375 | -64.91235 | 15997 ft | 336 kts | 90° |
| 2026-04-23 05:32 | 10.90386 | -64.88861 | 15572 ft | 335 kts | 90° |
| 2026-04-23 05:33 | 10.90396 | -64.86496 | 15140 ft | 334 kts | 91° |
| 2026-04-23 05:33 | 10.90406 | -64.84165 | 14704 ft | 333 kts | 91° |
| 2026-04-23 05:33 | 10.90415 | -64.81811 | 14269 ft | 333 kts | 91° |
| 2026-04-23 05:33 | 10.90425 | -64.79459 | 13842 ft | 332 kts | 91° |
| 2026-04-23 05:34 | 10.90435 | -64.77113 | 13359 ft | 331 kts | 91° |
| 2026-04-23 05:34 | 10.90445 | -64.74771 | 12916 ft | 329 kts | 91° |
| 2026-04-23 05:34 | 10.90456 | -64.72450 | 12484 ft | 327 kts | 91° |
| 2026-04-23 05:34 | 10.90467 | -64.70140 | 12059 ft | 325 kts | 91° |
| 2026-04-23 05:35 | 10.90475 | -64.67845 | 11639 ft | 323 kts | 91° |
| 2026-04-23 05:35 | 10.90481 | -64.65566 | 11227 ft | 321 kts | 91° |
| 2026-04-23 05:35 | 10.90484 | -64.63302 | 10839 ft | 319 kts | 91° |
| 2026-04-23 05:35 | 10.90440 | -64.61060 | 10487 ft | 315 kts | 93° |
| 2026-04-23 05:36 | 10.90372 | -64.58848 | 10155 ft | 311 kts | 93° |
| 2026-04-23 05:36 | 10.90303 | -64.56665 | 9877 ft | 305 kts | 92° |
| 2026-04-23 05:36 | 10.90238 | -64.54549 | 9518 ft | 301 kts | 93° |
| 2026-04-23 05:36 | 10.90176 | -64.52425 | 9145 ft | 299 kts | 93° |
| 2026-04-23 05:37 | 10.90117 | -64.50323 | 8783 ft | 296 kts | 93° |
| 2026-04-23 05:37 | 10.90060 | -64.48241 | 8447 ft | 292 kts | 93° |
| 2026-04-23 05:37 | 10.90020 | -64.46714 | 8211 ft | 290 kts | 93° |
| 2026-04-23 05:38 | 10.89972 | -64.44929 | 7934 ft | 286 kts | 93° |
| 2026-04-23 05:38 | 10.89919 | -64.42918 | 7626 ft | 283 kts | 93° |
| 2026-04-23 05:39 | 10.89866 | -64.40930 | 7320 ft | 280 kts | 93° |
| 2026-04-23 05:39 | 10.89814 | -64.38961 | 7014 ft | 277 kts | 94° |
| 2026-04-23 05:39 | 10.89763 | -64.37015 | 6720 ft | 274 kts | 94° |
| 2026-04-23 05:39 | 10.89712 | -64.35088 | 6415 ft | 271 kts | 93° |
| 2026-04-23 05:40 | 10.89662 | -64.33176 | 6107 ft | 269 kts | 94° |
| 2026-04-23 05:40 | 10.89612 | -64.31286 | 5803 ft | 266 kts | 93° |
| 2026-04-23 05:40 | 10.89563 | -64.29410 | 5504 ft | 264 kts | 93° |
| 2026-04-23 05:40 | 10.89515 | -64.27557 | 5215 ft | 261 kts | 92° |
| 2026-04-23 05:41 | 10.89511 | -64.27388 | 5189 ft | 261 kts | 93° |
| 2026-04-23 05:42 | 10.89475 | -64.26040 | 4989 ft | 260 kts | 93° |
| 2026-04-23 05:42 | 10.89425 | -64.24212 | 4729 ft | 257 kts | 92° |
| 2026-04-23 05:42 | 10.89376 | -64.22432 | 4595 ft | 243 kts | 92° |
| 2026-04-23 05:42 | 10.89330 | -64.20773 | 4476 ft | 226 kts | 92° |
| 2026-04-23 05:43 | 10.89245 | -64.19235 | 4374 ft | 209 kts | 97° |
| 2026-04-23 05:43 | 10.89058 | -64.17823 | 4241 ft | 194 kts | 99° |
| 2026-04-23 05:43 | 10.88877 | -64.16519 | 4142 ft | 178 kts | 98° |
| 2026-04-23 05:43 | 10.88714 | -64.15320 | 3950 ft | 165 kts | 98° |
| 2026-04-23 05:44 | 10.88564 | -64.14212 | 3683 ft | 155 kts | 98° |
| 2026-04-23 05:44 | 10.88422 | -64.13157 | 3415 ft | 143 kts | 98° |
| 2026-04-23 05:44 | 10.88301 | -64.12165 | 3065 ft | 138 kts | 92° |
| 2026-04-23 05:44 | 10.88406 | -64.11225 | 2761 ft | 130 kts | 81° |
| 2026-04-23 05:45 | 10.88573 | -64.10325 | 2588 ft | 131 kts | 80° |
| 2026-04-23 05:45 | 10.88752 | -64.09407 | 2392 ft | 133 kts | 80° |
| 2026-04-23 05:45 | 10.88932 | -64.08486 | 2203 ft | 132 kts | 79° |
| 2026-04-23 05:45 | 10.89112 | -64.07575 | 2022 ft | 132 kts | 79° |
| 2026-04-23 05:46 | 10.89291 | -64.06662 | 1838 ft | 131 kts | 80° |
| 2026-04-23 05:46 | 10.89451 | -64.05753 | 1655 ft | 133 kts | 79° |
| 2026-04-23 05:46 | 10.89616 | -64.04814 | 1458 ft | 133 kts | 81° |
| 2026-04-23 05:46 | 10.89789 | -64.03908 | 1278 ft | 131 kts | 80° |
| 2026-04-23 05:47 | 10.89991 | -64.02986 | 1038 ft | 136 kts | 78° |
| 2026-04-23 05:47 | 10.90173 | -64.02050 | 859 ft | 133 kts | 79° |
| 2026-04-23 05:47 | 10.90360 | -64.01118 | 663 ft | 133 kts | 78° |
| 2026-04-23 05:47 | 10.90552 | -64.00192 | 472 ft | 134 kts | 80° |
| 2026-04-23 05:48 | 10.90736 | -63.99255 | 348 ft | 135 kts | 79° |
| 2026-04-23 05:48 | 10.90922 | -63.98329 | 174 ft | 131 kts | 78° |
| 2026-04-23 05:48 | 10.91094 | -63.97482 | 61 ft | 112 kts | 78° |
| 2026-04-23 05:48 | 10.91226 | -63.96858 | 59 ft | 69 kts | 77° |
| 2026-04-23 05:49 | 10.91288 | -63.96545 | 56 ft | 20 kts | 78° |
| 2026-04-23 05:49 | 10.91306 | -63.96470 | 54 ft | 6 kts | 59° |
| 2026-04-23 05:49 | 10.91345 | -63.96460 | 53 ft | 6 kts | 347° |
| 2026-04-23 05:49 | 10.91387 | -63.96470 | 57 ft | 6 kts | 347° |
| 2026-04-23 05:50 | 10.91428 | -63.96479 | 58 ft | 6 kts | 347° |
| 2026-04-23 05:50 | 10.91469 | -63.96489 | 59 ft | 6 kts | 346° |
| 2026-04-23 05:50 | 10.91509 | -63.96499 | 59 ft | 6 kts | 346° |
| 2026-04-23 05:50 | 10.91549 | -63.96510 | 58 ft | 6 kts | 341° |
| 2026-04-23 05:51 | 10.91569 | -63.96531 | 53 ft | 7 kts | 298° |
| 2026-04-23 05:51 | 10.91567 | -63.96599 | 55 ft | 8 kts | 259° |
| 2026-04-23 05:51 | 10.91554 | -63.96657 | 59 ft | 9 kts | 258° |
| 2026-04-23 05:51 | 10.91541 | -63.96722 | 57 ft | 10 kts | 258° |
| 2026-04-23 05:52 | 10.91526 | -63.96792 | 59 ft | 10 kts | 257° |
| 2026-04-23 05:52 | 10.91512 | -63.96856 | 60 ft | 7 kts | 257° |
| 2026-04-23 05:52 | 10.91502 | -63.96901 | 57 ft | 4 kts | 258° |
| 2026-04-23 05:52 | 10.91502 | -63.96922 | 60 ft | 2 kts | 281° |
| 2026-04-23 05:53 | 10.91514 | -63.96928 | 53 ft | 2 kts | 354° |
| 2026-04-23 05:53 | 10.91529 | -63.96931 | 58 ft | 4 kts | 348° |
| 2026-04-23 05:53 | 10.91543 | -63.96934 | 54 ft | 1 kts | 349° |
| 2026-04-23 05:53 | 10.91553 | -63.96936 | 59 ft | 2 kts | 347° |
| 2026-04-23 05:54 | 10.91564 | -63.96939 | 59 ft | 1 kts | 346° |
| 2026-04-23 05:54 | 10.91568 | -63.96940 | 52 ft | 0 kts | 346° |